Time;durP1;ratioP1;P1;durP2;ratioP2;P2;SDS_P1;SDS_P2;PMS_P1;PMS_P2;Temp;Humidity;BMP_temperature;BMP_pressure;BME280_temperature;BME280_humidity;BME280_pressure;Samples;Min_cycle;Max_cycle;Signal;HPM_P1;HPM_P2
2023/01/16 00:00:21;;;;;;;2.13;0.93;;;;;;;6.75;53.36;96793.75;8316171;28;20583;-74
2023/01/16 00:04:24;;;;;;;1.70;0.97;;;;;;;6.80;53.26;96781.50;8315869;28;20238;-75
2023/01/16 00:08:28;;;;;;;1.80;0.93;;;;;;;6.62;53.80;96766.00;8315716;28;20230;-74
2023/01/16 00:12:31;;;;;;;3.57;0.97;;;;;;;6.68;53.26;96764.06;8315664;28;20232;-74
2023/01/16 00:16:34;;;;;;;1.67;1.00;;;;;;;6.75;53.01;96755.97;8315415;28;20298;-74
2023/01/16 00:20:37;;;;;;;2.70;0.87;;;;;;;6.41;53.89;96756.75;8315546;28;20237;-75
2023/01/16 00:24:41;;;;;;;3.00;1.10;;;;;;;6.62;53.40;96748.00;8315292;28;20240;-75
2023/01/16 00:28:44;;;;;;;2.03;1.00;;;;;;;6.48;53.39;96752.16;8314796;28;20225;-74
2023/01/16 00:32:47;;;;;;;1.27;0.90;;;;;;;6.46;53.56;96732.47;8315019;28;20551;-74
2023/01/16 00:36:50;;;;;;;3.10;0.93;;;;;;;6.67;53.18;96721.25;8314937;28;20236;-74
2023/01/16 00:40:54;;;;;;;2.30;1.07;;;;;;;6.69;52.84;96722.00;8314820;28;20230;-74
2023/01/16 00:44:57;;;;;;;2.70;1.20;;;;;;;6.60;53.36;96718.94;8314546;28;20230;-75
2023/01/16 00:48:59;;;;;;;3.17;1.10;;;;;;;6.68;53.32;96718.59;8314399;28;20237;-75
2023/01/16 00:53:02;;;;;;;1.90;1.03;;;;;;;6.76;52.59;96715.63;8314606;28;20226;-74
2023/01/16 00:57:07;;;;;;;2.33;1.10;;;;;;;6.61;53.16;96704.38;8314181;28;20233;-74
2023/01/16 01:01:09;;;;;;;1.73;1.10;;;;;;;6.41;53.70;96700.19;8314363;28;20218;-75
2023/01/16 01:05:16;;;;;;;3.27;1.00;;;;;;;6.21;54.06;96689.09;8313861;28;20498;-75
2023/01/16 01:09:18;;;;;;;2.73;1.10;;;;;;;6.67;52.84;96698.09;8313933;28;20260;-74
2023/01/16 01:13:23;;;;;;;4.00;1.17;;;;;;;6.29;53.95;96682.78;8314067;28;20234;-74
2023/01/16 01:17:25;;;;;;;0.97;0.77;;;;;;;6.42;53.53;96681.28;8313936;28;20229;-74
2023/01/16 01:21:28;;;;;;;2.10;1.07;;;;;;;6.58;52.71;96681.38;8314018;28;20385;-74
2023/01/16 01:25:31;;;;;;;3.77;0.90;;;;;;;6.85;51.87;96674.00;8313732;28;20548;-74
2023/01/16 01:29:35;;;;;;;2.47;0.97;;;;;;;6.37;53.44;96665.22;8312968;28;20296;-74
2023/01/16 01:33:38;;;;;;;1.93;0.90;;;;;;;6.75;52.61;96665.91;8313578;28;20226;-74
2023/01/16 01:37:41;;;;;;;1.00;0.80;;;;;;;6.79;52.41;96654.56;8313162;28;20249;-74
2023/01/16 01:41:44;;;;;;;2.77;1.00;;;;;;;6.89;51.84;96656.69;8313347;28;20518;-74
2023/01/16 01:45:51;;;;;;;2.27;1.10;;;;;;;6.60;53.05;96643.53;8313301;28;20233;-75
2023/01/16 01:49:55;;;;;;;4.00;0.90;;;;;;;7.01;51.81;96640.63;8313417;28;20226;-75
2023/01/16 01:54:00;;;;;;;1.97;1.03;;;;;;;6.72;52.10;96627.50;8312946;28;20226;-75
2023/01/16 01:58:03;;;;;;;1.67;0.80;;;;;;;6.92;51.96;96612.78;8313152;28;20222;-75
2023/01/16 02:02:10;;;;;;;1.90;1.00;;;;;;;7.08;51.18;96607.66;8312970;28;20249;-75
2023/01/16 02:06:18;;;;;;;2.00;0.90;;;;;;;7.11;51.00;96590.31;8312523;28;20234;-75
2023/01/16 02:10:27;;;;;;;3.97;0.83;;;;;;;6.91;51.23;96570.78;8313180;28;20517;-75
2023/01/16 02:14:32;;;;;;;2.73;1.00;;;;;;;7.19;50.60;96587.34;8313039;28;20422;-75
2023/01/16 02:23:38;;;;;;;2.33;0.80;;;;;;;7.18;51.09;96570.25;8312469;28;20229;-75
2023/01/16 02:28:07;;;;;;;3.37;0.73;;;;;;;7.05;51.17;96552.84;8312809;28;20514;-75
2023/01/16 02:32:26;;;;;;;1.60;0.70;;;;;;;7.12;50.85;96539.66;8312366;28;20226;-75
2023/01/16 02:36:38;;;;;;;3.70;1.00;;;;;;;7.26;51.11;96526.88;8312736;28;20406;-75
2023/01/16 02:40:49;;;;;;;2.33;0.80;;;;;;;7.15;51.05;96508.59;8315397;28;20226;-75
2023/01/16 02:44:56;;;;;;;1.60;0.77;;;;;;;7.33;50.81;96510.19;8318527;28;20249;-76
2023/01/16 02:49:05;;;;;;;3.50;1.40;;;;;;;7.20;50.51;96491.19;8318527;28;20425;-76
2023/01/16 02:53:15;;;;;;;1.20;0.60;;;;;;;7.03;51.16;96487.75;8318190;28;20230;-74
2023/01/16 02:57:20;;;;;;;2.50;0.97;;;;;;;7.50;50.33;96487.81;8318125;28;20237;-74
2023/01/16 03:01:22;;;;;;;4.00;0.93;;;;;;;7.16;51.21;96471.63;8317986;28;20293;-74
2023/01/16 03:05:27;;;;;;;2.10;0.77;;;;;;;7.26;51.21;96470.25;8317816;28;20233;-74
2023/01/16 03:09:35;;;;;;;2.07;0.73;;;;;;;7.10;51.50;96459.09;8317652;28;20247;-74
2023/01/16 03:14:02;;;;;;;3.70;0.90;;;;;;;7.17;51.58;96458.69;8317719;28;20237;-74
2023/01/16 03:18:10;;;;;;;2.73;0.80;;;;;;;7.21;51.01;96442.16;8317423;28;20229;-74
2023/01/16 03:22:17;;;;;;;4.17;1.00;;;;;;;6.83;51.41;96433.94;8317245;28;20222;-74
2023/01/16 03:26:27;;;;;;;1.77;0.80;;;;;;;7.12;50.98;96421.22;8317227;28;20233;-74
2023/01/16 03:30:32;;;;;;;1.13;0.77;;;;;;;6.97;51.65;96400.59;8317240;28;20222;-74
2023/01/16 03:34:41;;;;;;;3.43;0.97;;;;;;;6.76;52.06;96399.16;8317018;28;20465;-74
2023/01/16 03:38:46;;;;;;;2.47;0.70;;;;;;;6.88;52.02;96382.25;8316511;28;20422;-74
2023/01/16 03:42:53;;;;;;;2.43;0.93;;;;;;;7.07;51.21;96372.59;8316623;28;20416;-74
2023/01/16 03:46:56;;;;;;;1.97;0.83;;;;;;;6.32;52.74;96362.06;8316584;28;20230;-74
2023/01/16 03:51:03;;;;;;;2.10;0.90;;;;;;;6.10;54.39;96370.06;8315808;28;20230;-74
2023/01/16 03:55:13;;;;;;;3.93;1.00;;;;;;;6.22;53.42;96354.00;8316285;28;20234;-74
2023/01/16 03:59:16;;;;;;;4.13;0.80;;;;;;;6.23;54.08;96339.41;8316149;28;20235;-74
2023/01/16 04:03:24;;;;;;;1.60;0.73;;;;;;;6.24;53.74;96323.06;8316184;28;20237;-74
2023/01/16 04:07:32;;;;;;;2.97;0.73;;;;;;;6.36;52.86;96286.44;8315559;28;20502;-75
2023/01/16 04:11:38;;;;;;;2.07;0.80;;;;;;;5.98;53.11;96320.13;8315875;28;20228;-75
2023/01/16 04:15:45;;;;;;;2.80;0.70;;;;;;;5.65;54.97;96310.66;8315199;28;20249;-74
2023/01/16 04:19:48;;;;;;;2.20;0.87;;;;;;;6.53;52.61;96306.09;8315923;28;20233;-74
2023/01/16 04:23:52;;;;;;;2.43;0.83;;;;;;;6.51;52.31;96305.34;8315403;28;20300;-74
2023/01/16 04:27:56;;;;;;;1.90;1.10;;;;;;;6.22;53.58;96291.47;8315160;28;20234;-74
2023/01/16 04:31:59;;;;;;;2.47;0.90;;;;;;;5.51;54.89;96284.84;8315366;28;20230;-75
2023/01/16 04:36:02;;;;;;;0.83;0.63;;;;;;;5.81;53.36;96277.31;8315061;28;20237;-74
2023/01/16 04:40:08;;;;;;;3.40;1.20;;;;;;;5.85;54.20;96263.38;8315095;28;20230;-74
2023/01/16 04:44:12;;;;;;;2.83;1.40;;;;;;;5.37;54.50;96259.03;8314650;28;20241;-74
2023/01/16 04:48:15;;;;;;;2.63;1.20;;;;;;;5.93;52.87;96255.28;8314697;28;20229;-74
2023/01/16 04:52:18;;;;;;;3.23;1.10;;;;;;;5.64;53.44;96220.84;8314552;28;20226;-74
2023/01/16 04:56:21;;;;;;;1.37;0.90;;;;;;;6.01;53.48;96229.19;8314532;28;20226;-75
2023/01/16 05:00:25;;;;;;;1.90;0.93;;;;;;;5.99;52.99;96231.03;8314502;28;20228;-74
2023/01/16 05:04:28;;;;;;;1.50;1.17;;;;;;;5.62;53.28;96210.66;8313347;28;20548;-75
2023/01/16 05:08:31;;;;;;;2.60;1.00;;;;;;;5.95;53.08;96212.38;8314012;28;20245;-74
2023/01/16 05:12:33;;;;;;;2.10;1.10;;;;;;;5.39;53.36;96193.06;8314065;28;20241;-74
2023/01/16 05:16:38;;;;;;;2.77;1.10;;;;;;;4.78;55.92;96184.16;8313972;28;20225;-74
2023/01/16 05:20:41;;;;;;;2.47;1.30;;;;;;;5.27;54.53;96177.38;8313407;28;20226;-74
2023/01/16 05:24:44;;;;;;;5.20;1.10;;;;;;;5.72;53.64;96169.09;8313373;28;20350;-75
2023/01/16 05:28:47;;;;;;;3.30;1.20;;;;;;;5.88;53.56;96160.47;8313647;28;20513;-75
2023/01/16 05:32:51;;;;;;;2.10;1.10;;;;;;;5.58;53.20;96162.09;8313721;28;20230;-75
2023/01/16 05:36:54;;;;;;;2.90;1.07;;;;;;;4.76;55.89;96162.88;8313538;28;20229;-74
2023/01/16 05:40:57;;;;;;;2.17;1.00;;;;;;;5.71;53.52;96152.00;8313374;28;20233;-75
2023/01/16 05:44:59;;;;;;;3.70;0.90;;;;;;;5.18;54.94;96146.22;8313126;28;20238;-75
2023/01/16 05:49:03;;;;;;;1.50;0.90;;;;;;;4.62;56.67;96132.81;8313303;28;20227;-73
2023/01/16 05:53:06;;;;;;;2.73;0.80;;;;;;;4.28;58.16;96137.03;8313195;28;20226;-73
2023/01/16 05:57:09;;;;;;;7.17;1.47;;;;;;;4.29;58.53;96125.88;8313278;28;20238;-73
2023/01/16 06:01:11;;;;;;;3.80;1.30;;;;;;;4.52;57.61;96129.06;8313184;28;20422;-73
2023/01/16 06:05:16;;;;;;;3.00;1.40;;;;;;;4.79;55.94;96119.16;8313164;28;20284;-73
2023/01/16 06:09:19;;;;;;;2.90;1.57;;;;;;;4.60;57.74;96107.25;8312651;28;20238;-73
2023/01/16 06:13:21;;;;;;;2.40;1.47;;;;;;;4.73;55.61;96093.81;8312838;28;20226;-72
2023/01/16 06:17:24;;;;;;;2.77;1.60;;;;;;;5.04;55.59;96090.50;8319330;28;20234;-72
2023/01/16 06:21:28;;;;;;;2.67;1.60;;;;;;;5.04;55.98;96085.34;8319476;28;20237;-73
2023/01/16 06:25:31;;;;;;;4.10;1.67;;;;;;;4.51;57.72;96066.69;8319046;28;20224;-72
2023/01/16 06:29:34;;;;;;;3.40;1.87;;;;;;;4.98;55.92;96065.97;8319150;28;20510;-72
2023/01/16 06:33:37;;;;;;;3.70;2.60;;;;;;;4.79;56.42;96040.47;8319029;28;20233;-74
2023/01/16 06:37:41;;;;;;;2.33;1.77;;;;;;;4.79;56.17;96045.59;8318768;28;20226;-73
2023/01/16 06:41:44;;;;;;;2.83;1.60;;;;;;;5.19;54.88;96043.50;8318190;28;20227;-73
2023/01/16 06:45:47;;;;;;;3.23;1.73;;;;;;;4.99;55.29;96024.03;8318582;28;20253;-74
2023/01/16 06:49:50;;;;;;;2.17;1.70;;;;;;;4.49;56.55;96027.47;8318436;28;20230;-73
2023/01/16 06:53:54;;;;;;;5.10;1.80;;;;;;;4.80;55.86;96010.53;8318505;28;20550;-73
2023/01/16 06:57:57;;;;;;;3.53;1.60;;;;;;;4.45;55.91;95934.53;8318166;28;20280;-73
2023/01/16 07:01:59;;;;;;;2.97;1.40;;;;;;;4.11;57.59;95999.50;8317946;28;20237;-73
2023/01/16 07:06:02;;;;;;;2.20;1.50;;;;;;;4.70;56.83;95995.63;8317010;28;20230;-74
2023/01/16 07:10:08;;;;;;;3.23;1.40;;;;;;;4.62;56.69;95978.97;8317643;28;20237;-74
2023/01/16 07:22:48;;;;;;;3.50;1.50;;;;;;;4.87;55.60;95969.09;8316894;28;20226;-74
2023/01/16 07:26:54;;;;;;;2.57;1.40;;;;;;;4.70;56.32;95949.47;8315920;28;20241;-74
2023/01/16 07:30:57;;;;;;;3.63;1.50;;;;;;;3.61;58.75;95931.13;8316930;28;20235;-74
2023/01/16 07:35:00;;;;;;;2.00;1.50;;;;;;;3.40;60.24;95918.47;8317021;28;20234;-74
2023/01/16 07:39:03;;;;;;;1.57;1.40;;;;;;;4.20;58.85;95919.59;8316971;28;20233;-74
2023/01/16 07:43:07;;;;;;;2.67;1.90;;;;;;;3.76;58.97;95903.94;8316749;28;20226;-74
2023/01/16 07:47:12;;;;;;;4.70;2.10;;;;;;;4.09;58.62;95903.97;8316538;28;20230;-74
2023/01/16 07:51:15;;;;;;;5.77;2.20;;;;;;;4.12;58.80;95893.56;8316443;28;20418;-74
2023/01/16 07:55:18;;;;;;;3.77;1.87;;;;;;;4.04;58.81;95878.59;8316248;28;20237;-73
2023/01/16 07:59:22;;;;;;;2.37;1.70;;;;;;;4.10;57.91;95875.72;8316449;28;20226;-73
2023/01/16 08:03:25;;;;;;;3.67;2.13;;;;;;;4.24;57.67;95869.03;8316443;28;20252;-73
2023/01/16 08:07:28;;;;;;;3.00;1.87;;;;;;;6.98;50.62;95864.34;8315714;28;20234;-74
2023/01/16 08:11:38;;;;;;;3.43;1.33;;;;;;;8.65;61.36;95855.91;8315702;28;20548;-75
2023/01/16 08:15:42;;;;;;;4.73;1.70;;;;;;;10.42;50.40;95843.75;8315596;28;20505;-75
2023/01/16 08:19:45;;;;;;;2.53;1.80;;;;;;;9.17;46.01;95837.50;8314904;28;20228;-75
2023/01/16 08:23:47;;;;;;;2.23;1.40;;;;;;;7.70;48.19;95832.28;8315055;28;20390;-74
2023/01/16 08:27:51;;;;;;;1.97;1.47;;;;;;;6.83;48.99;95811.28;8314993;28;20230;-74
2023/01/16 08:31:55;;;;;;;4.63;1.30;;;;;;;6.67;50.05;95814.00;8315140;28;20226;-74
2023/01/16 08:35:58;;;;;;;2.37;1.50;;;;;;;6.81;50.30;95785.66;8314941;28;20573;-73
2023/01/16 08:40:03;;;;;;;2.50;1.20;;;;;;;8.21;47.13;95778.91;8314418;28;20338;-74
2023/01/16 08:52:48;;;;;;;2.40;1.37;;;;;;;6.16;51.22;95762.34;8314098;28;20502;-74
2023/01/16 08:56:51;;;;;;;2.87;1.20;;;;;;;6.02;51.28;95760.63;8314324;28;20544;-74
2023/01/16 09:00:54;;;;;;;2.43;1.27;;;;;;;5.93;52.33;95749.13;8314281;28;20226;-75
2023/01/16 09:04:58;;;;;;;2.90;1.00;;;;;;;6.04;52.64;95735.66;8314042;28;20404;-74
2023/01/16 09:09:01;;;;;;;1.63;1.00;;;;;;;6.54;51.57;95735.97;8313690;28;20226;-75
2023/01/16 09:17:27;;;;;;;2.00;1.00;;;;;;;6.70;50.00;95731.53;8304772;28;20250;-75
2023/01/16 09:21:31;;;;;;;1.43;0.87;;;;;;;6.23;50.79;95720.75;8313780;28;20431;-74
2023/01/16 09:25:34;;;;;;;0.80;0.73;;;;;;;6.00;51.11;95708.53;8313695;28;20222;-75
2023/01/16 09:29:37;;;;;;;1.17;0.93;;;;;;;6.51;49.74;95700.16;8313420;28;20518;-75
2023/01/16 09:33:41;;;;;;;0.80;0.80;;;;;;;6.42;50.13;95686.19;8313298;28;20298;-75
2023/01/16 09:37:45;;;;;;;2.80;1.07;;;;;;;6.98;49.17;95697.06;8312788;28;20229;-75
2023/01/16 09:46:19;;;;;;;2.37;1.20;;;;;;;7.32;48.06;95676.00;8313043;28;20233;-75
2023/01/16 09:50:30;;;;;;;1.33;0.60;;;;;;;6.40;49.98;95663.13;8319234;28;20506;-75
2023/01/16 09:59:20;;;;;;;2.80;1.10;;;;;;;6.98;48.43;95650.75;8311251;28;20217;-74
2023/01/16 10:03:23;;;;;;;2.50;0.83;;;;;;;6.60;49.21;95636.09;8323844;28;20225;-74
2023/01/16 10:07:48;;;;;;;2.13;0.90;;;;;;;7.18;47.97;95612.56;8323332;28;20233;-74
2023/01/16 10:11:59;;;;;;;1.13;0.73;;;;;;;7.46;47.53;95602.94;8323180;28;20225;-73
2023/01/16 10:16:12;;;;;;;1.27;0.63;;;;;;;7.13;46.94;95589.72;8323262;28;20242;-74
2023/01/16 10:21:04;;;;;;;3.27;0.93;;;;;;;7.42;46.93;95592.88;8323452;28;20237;-74
2023/01/16 10:25:16;;;;;;;1.63;1.00;;;;;;;8.06;45.71;95581.50;8297619;28;20237;-74
2023/01/16 10:29:26;;;;;;;1.43;0.90;;;;;;;8.30;44.76;95566.00;8323520;28;20229;-74
2023/01/16 10:33:32;;;;;;;1.23;0.70;;;;;;;8.72;42.76;95565.50;8323404;28;20233;-73
2023/01/16 10:37:42;;;;;;;2.30;0.80;;;;;;;8.31;43.94;95551.34;8322820;28;20297;-74
2023/01/16 10:50:53;;;;;;;1.70;0.60;;;;;;;7.23;44.92;95531.53;8322690;28;20222;-74
2023/01/16 10:54:57;;;;;;;2.87;0.60;;;;;;;7.78;43.90;95521.63;8322968;28;20533;-75
2023/01/16 10:59:01;;;;;;;1.20;0.80;;;;;;;7.00;44.74;95512.50;8322684;28;22551;-74
2023/01/16 11:03:12;;;;;;;0.67;0.50;;;;;;;7.75;44.03;95488.38;8316902;28;20229;-74
2023/01/16 11:07:16;;;;;;;0.80;0.70;;;;;;;7.80;44.09;95460.50;8317136;28;20234;-75
2023/01/16 11:20:02;;;;;;;2.07;1.13;;;;;;;7.46;45.90;95431.22;8316893;28;20234;-74
2023/01/16 11:24:15;;;;;;;2.77;1.13;;;;;;;7.20;44.97;95431.34;8317142;28;20229;-74
2023/01/16 11:28:21;;;;;;;2.27;0.80;;;;;;;7.93;43.77;95408.88;8316737;28;20227;-75
2023/01/16 11:32:27;;;;;;;1.17;0.70;;;;;;;7.54;43.93;95403.16;8316986;28;20431;-75
2023/01/16 11:36:33;;;;;;;2.33;0.70;;;;;;;7.38;43.55;95410.34;8316569;28;20222;-73
2023/01/16 11:40:37;;;;;;;0.70;0.67;;;;;;;7.28;43.20;95397.31;8316587;28;20521;-74
2023/01/16 11:49:03;;;;;;;0.70;0.60;;;;;;;7.35;43.88;95357.34;8315847;28;20238;-73
2023/01/16 11:53:09;;;;;;;1.93;1.10;;;;;;;6.82;45.43;95331.97;8316125;28;20427;-74
2023/01/16 11:57:30;;;;;;;3.37;1.50;;;;;;;6.36;44.76;95242.66;8316122;28;20226;-74
2023/01/16 12:06:06;;;;;;;1.30;1.13;;;;;;;7.41;44.10;95305.38;8314811;28;20525;-75
2023/01/16 12:10:25;;;;;;;2.00;0.90;;;;;;;7.56;44.48;95306.00;8315244;28;20236;-74
2023/01/16 12:14:32;;;;;;;4.23;1.50;;;;;;;7.54;44.19;95305.31;8314773;28;20544;-74
2023/01/16 12:18:43;;;;;;;1.63;0.80;;;;;;;7.71;44.10;95305.78;8315286;28;20233;-74
2023/01/16 12:23:01;;;;;;;1.77;0.87;;;;;;;7.36;44.90;95288.63;8314786;28;20222;-74
2023/01/16 12:27:16;;;;;;;1.83;1.30;;;;;;;7.80;44.33;95302.50;8314836;28;20222;-73
2023/01/16 12:31:48;;;;;;;1.50;1.00;;;;;;;7.88;44.10;95289.03;8315091;28;20233;-74
2023/01/16 12:35:55;;;;;;;2.03;0.97;;;;;;;8.31;43.67;95299.44;8314534;28;20256;-74
2023/01/16 12:40:08;;;;;;;2.10;1.03;;;;;;;7.92;44.31;95299.00;8314687;28;20230;-73
2023/01/16 12:44:22;;;;;;;1.87;1.10;;;;;;;8.25;43.88;95299.94;8314496;28;20230;-72
2023/01/16 12:48:46;;;;;;;2.10;1.07;;;;;;;8.70;42.56;95297.31;8314376;28;20568;-74
2023/01/16 12:53:14;;;;;;;1.17;0.90;;;;;;;8.65;42.24;95286.53;8313930;28;20218;-73
2023/01/16 12:57:49;;;;;;;6.87;4.40;;;;;;;8.25;42.52;95279.31;8314285;28;20238;-74
2023/01/16 13:01:56;;;;;;;4.60;3.30;;;;;;;8.22;43.15;95293.25;8309099;28;20226;-74
2023/01/16 13:05:59;;;;;;;7.90;5.10;;;;;;;8.55;42.43;95276.13;8313530;28;20234;-73
2023/01/16 13:14:26;;;;;;;5.60;4.43;;;;;;;8.49;42.20;95266.28;8313881;28;20526;-73
2023/01/16 13:18:36;;;;;;;3.23;2.40;;;;;;;8.64;42.03;95251.34;8314384;28;20537;-73
2023/01/16 13:22:44;;;;;;;2.40;2.10;;;;;;;8.59;42.13;95240.59;8315404;28;20218;-74
2023/01/16 13:26:54;;;;;;;2.33;1.70;;;;;;;8.38;42.68;95249.03;8312376;28;20238;-73
2023/01/16 13:31:00;;;;;;;4.40;1.50;;;;;;;8.41;42.35;95250.56;8313819;28;20241;-74
2023/01/16 13:35:09;;;;;;;2.43;1.40;;;;;;;8.52;42.16;95257.47;8313233;28;20290;-73
2023/01/16 13:39:33;;;;;;;3.00;1.60;;;;;;;8.56;41.72;95261.44;8313319;28;20229;-71
2023/01/16 13:47:58;;;;;;;2.53;1.53;;;;;;;8.40;43.34;95244.59;8300822;28;20234;-72
2023/01/16 13:52:04;;;;;;;4.00;2.00;;;;;;;8.54;42.67;95238.34;8313057;28;20235;-72
2023/01/16 13:56:09;;;;;;;1.50;1.33;;;;;;;8.63;42.93;95236.00;8313115;28;20232;-71
2023/01/16 14:00:13;;;;;;;2.27;1.20;;;;;;;8.50;43.26;95231.00;8313238;28;20499;-73
2023/01/16 14:04:32;;;;;;;3.40;2.30;;;;;;;8.45;42.71;95221.03;8313097;28;20237;-73
2023/01/16 14:09:07;;;;;;;2.50;1.40;;;;;;;8.13;42.86;95202.91;8313045;28;20518;-72
2023/01/16 14:13:15;;;;;;;1.57;1.17;;;;;;;8.57;42.87;95204.59;8312492;28;20474;-72
2023/01/16 14:17:19;;;;;;;2.70;1.33;;;;;;;8.18;44.19;95185.34;8312337;28;20241;-72
2023/01/16 14:21:25;;;;;;;0.97;0.73;;;;;;;7.75;46.70;95184.38;8312826;28;20233;-72
2023/01/16 14:25:30;;;;;;;0.83;0.70;;;;;;;7.63;47.50;95169.84;8312696;28;20423;-72
2023/01/16 14:29:35;;;;;;;0.73;0.57;;;;;;;7.73;47.60;95169.94;8312284;28;20552;-73
2023/01/16 14:33:38;;;;;;;0.80;0.53;;;;;;;7.55;48.15;95164.47;8312486;28;20226;-73
2023/01/16 14:37:43;;;;;;;1.30;1.00;;;;;;;7.30;49.24;95142.34;8317082;28;20226;-73
2023/01/16 14:55:16;;;;;;;1.13;0.60;;;;;;;7.70;50.47;95080.84;8318722;28;20226;-73
2023/01/16 14:59:23;;;;;;;0.70;0.70;;;;;;;7.74;50.73;95066.78;8318578;28;20533;-73
2023/01/16 15:03:29;;;;;;;0.57;0.57;;;;;;;7.27;50.68;95049.91;8318527;28;20414;-73
2023/01/16 15:07:36;;;;;;;0.93;0.67;;;;;;;7.27;51.30;95024.16;8318097;28;20257;-72
2023/01/16 15:11:45;;;;;;;1.10;0.80;;;;;;;6.97;51.60;95031.59;8319433;28;20283;-73
2023/01/16 15:15:51;;;;;;;0.80;0.80;;;;;;;7.47;50.09;95010.56;8318253;28;20218;-72
2023/01/16 15:24:24;;;;;;;1.30;0.90;;;;;;;7.02;49.82;95000.34;8317596;28;20229;-73
2023/01/16 15:28:34;;;;;;;1.13;1.00;;;;;;;7.43;48.62;94991.16;8317298;28;20281;-73
2023/01/16 15:33:43;;;;;;;2.13;1.30;;;;;;;7.76;47.53;94985.03;8317324;28;20225;-73
2023/01/16 15:37:23;;;;;;;1.60;1.50;;;;;;;7.93;46.60;94988.84;8316680;28;20419;-73
2023/01/16 15:50:23;;;;;;;1.67;1.23;;;;;;;7.32;45.53;94983.44;8316076;28;20230;-73
2023/01/16 15:54:26;;;;;;;1.50;1.30;;;;;;;7.11;45.49;94978.22;8316215;28;20222;-74
2023/01/16 15:58:29;;;;;;;2.40;1.30;;;;;;;7.24;45.10;94956.56;8316272;28;20233;-72
2023/01/16 16:02:33;;;;;;;2.20;1.17;;;;;;;7.18;45.35;94951.09;8316155;28;20537;-73
2023/01/16 16:06:38;;;;;;;1.57;1.07;;;;;;;7.45;44.40;94937.78;8314678;28;20240;-73
2023/01/16 16:19:36;;;;;;;2.30;1.57;;;;;;;7.15;45.26;94923.00;8315664;28;20237;-74
2023/01/16 16:23:41;;;;;;;2.20;1.00;;;;;;;7.42;45.08;94914.84;8315090;28;20244;-73
2023/01/16 16:27:44;;;;;;;0.87;0.87;;;;;;;7.58;44.75;94901.56;8314752;28;20230;-73
2023/01/16 16:31:48;;;;;;;0.97;0.90;;;;;;;7.05;45.39;94897.19;8315323;28;20502;-73
2023/01/16 16:35:53;;;;;;;1.03;0.93;;;;;;;6.82;46.50;94907.53;8315014;28;20230;-72
2023/01/16 16:40:06;;;;;;;1.63;1.10;;;;;;;6.94;46.21;94892.06;8315020;28;20230;-72
2023/01/16 16:44:10;;;;;;;2.73;1.00;;;;;;;7.07;46.03;94884.22;8314937;28;20502;-73
2023/01/16 16:48:30;;;;;;;2.87;1.40;;;;;;;7.20;46.06;94882.28;8314652;28;20230;-72
2023/01/16 16:52:39;;;;;;;1.40;1.20;;;;;;;6.63;46.57;94846.44;8314685;28;20233;-73
2023/01/16 16:56:46;;;;;;;1.07;0.90;;;;;;;7.00;46.94;94866.66;8313919;28;20493;-73
2023/01/16 17:00:52;;;;;;;1.20;1.10;;;;;;;6.45;48.14;94864.13;8314369;28;20234;-72
2023/01/16 17:04:55;;;;;;;1.73;1.30;;;;;;;6.92;47.38;94861.31;8313953;28;20230;-72
2023/01/16 17:08:57;;;;;;;1.40;1.20;;;;;;;6.95;46.87;94825.06;8313594;28;20253;-73
2023/01/16 17:13:01;;;;;;;1.27;0.90;;;;;;;7.36;46.02;94845.81;8313861;28;20280;-73
2023/01/16 17:17:04;;;;;;;1.13;1.00;;;;;;;7.11;46.98;94834.13;8313913;28;20510;-73
2023/01/16 17:21:07;;;;;;;1.97;1.30;;;;;;;7.24;46.50;94843.31;8313924;28;20230;-72
2023/01/16 17:25:13;;;;;;;1.77;1.30;;;;;;;7.16;46.63;94835.38;8313546;28;20574;-72
2023/01/16 17:29:18;;;;;;;3.77;1.57;;;;;;;7.50;46.03;94831.81;8313418;28;20233;-71
2023/01/16 17:33:22;;;;;;;1.90;1.40;;;;;;;7.40;46.30;94829.19;8313371;28;20253;-72
2023/01/16 17:37:25;;;;;;;1.93;1.30;;;;;;;7.57;45.32;94828.63;8313475;28;20407;-72
2023/01/16 17:45:51;;;;;;;1.33;1.20;;;;;;;7.29;46.27;94798.34;8313556;28;20234;-72
2023/01/16 17:46:00;;;;;;;0.77;0.77;;;;;;;7.28;46.24;94823.28;8313291;28;20229;-73
2023/01/16 17:50:21;;;;;;;1.50;0.97;;;;;;;7.77;45.40;94810.72;8312984;28;20236;-72
2023/01/16 17:58:49;;;;;;;1.47;1.20;;;;;;;7.42;47.05;94789.50;8312744;28;20222;-72
2023/01/16 18:02:53;;;;;;;1.90;1.10;;;;;;;7.48;46.91;94783.00;8312681;28;20282;-72
2023/01/16 18:06:57;;;;;;;1.40;1.10;;;;;;;7.24;47.75;94788.44;8312459;28;20558;-72
2023/01/16 18:11:00;;;;;;;1.20;1.07;;;;;;;7.31;47.59;94794.72;8315051;28;20238;-72
2023/01/16 18:19:21;;;;;;;1.03;0.93;;;;;;;7.34;47.54;94786.72;8307428;28;20250;-73
2023/01/16 18:23:24;;;;;;;2.77;1.67;;;;;;;7.48;47.57;94788.16;8319064;28;20226;-72
2023/01/16 18:27:27;;;;;;;1.07;0.97;;;;;;;7.48;47.11;94793.31;8319500;28;20230;-71
2023/01/16 18:31:30;;;;;;;1.40;1.30;;;;;;;7.70;46.77;94800.09;8320359;28;20222;-72
2023/01/16 18:35:35;;;;;;;2.27;1.77;;;;;;;7.64;46.52;94788.53;8318486;28;20230;-73
2023/01/16 19:05:41;;;;;;;1.40;0.90;;;;;;;7.70;48.62;94786.41;8317063;28;20223;-73
2023/01/16 19:09:45;;;;;;;2.30;0.80;;;;;;;7.43;47.87;94792.91;8317745;28;20238;-71
2023/01/16 19:13:49;;;;;;;1.90;1.10;;;;;;;7.32;48.97;94770.59;8317143;28;20230;-70
2023/01/16 19:17:53;;;;;;;1.27;1.17;;;;;;;7.38;50.24;94795.84;8317596;28;20230;-71
2023/01/16 19:21:59;;;;;;;1.93;1.10;;;;;;;7.34;51.12;94783.34;8315945;28;20648;-71
2023/01/16 19:26:06;;;;;;;2.27;1.23;;;;;;;7.40;51.11;94793.13;8317435;28;20556;-73
2023/01/16 19:30:10;;;;;;;1.40;1.30;;;;;;;7.41;51.20;94787.06;8317358;28;20237;-72
2023/01/16 19:34:13;;;;;;;1.60;1.17;;;;;;;7.31;51.26;94760.44;8317159;28;20225;-72
2023/01/16 19:38:15;;;;;;;2.40;2.00;;;;;;;7.24;51.92;94789.25;8317123;28;20230;-73
2023/01/16 19:46:42;;;;;;;3.17;1.97;;;;;;;7.32;52.92;94791.19;8317032;28;20237;-71
2023/01/16 19:50:45;;;;;;;1.70;1.43;;;;;;;7.33;53.95;94789.44;8317179;28;20241;-72
2023/01/16 19:54:50;;;;;;;1.17;1.00;;;;;;;7.43;54.17;94775.69;8317413;28;20245;-72
2023/01/16 19:58:55;;;;;;;1.03;1.00;;;;;;;7.30;54.64;94787.13;8317430;28;20230;-72
2023/01/16 20:02:57;;;;;;;1.20;1.10;;;;;;;7.63;54.01;94784.34;8317122;28;20237;-72
2023/01/16 20:07:01;;;;;;;0.90;0.90;;;;;;;7.39;55.17;94779.47;8317069;28;20241;-72
2023/01/16 20:11:03;;;;;;;0.73;0.73;;;;;;;7.26;55.35;94773.69;8316303;28;20398;-72
2023/01/16 20:15:13;;;;;;;1.43;1.00;;;;;;;7.32;55.74;94773.19;8317024;28;20226;-71
2023/01/16 20:19:16;;;;;;;0.80;0.80;;;;;;;7.26;56.92;94776.25;8316924;28;20394;-72
2023/01/16 20:23:19;;;;;;;0.90;0.90;;;;;;;7.40;56.81;94770.78;8316761;28;20249;-72
2023/01/16 20:27:21;;;;;;;1.10;1.00;;;;;;;7.15;57.80;94768.59;8316442;28;20237;-72
2023/01/16 20:31:28;;;;;;;0.90;0.90;;;;;;;7.21;57.64;94770.66;8316399;28;20230;-72
2023/01/16 20:35:31;;;;;;;0.80;0.80;;;;;;;7.08;58.01;94752.81;8315950;28;20537;-72
2023/01/16 20:39:34;;;;;;;0.80;0.80;;;;;;;7.19;58.70;94780.28;8316163;28;20534;-72
2023/01/16 20:47:59;;;;;;;0.70;0.60;;;;;;;6.94;60.68;94786.59;8315885;28;20509;-72
2023/01/16 20:52:03;;;;;;;0.50;0.50;;;;;;;6.91;62.13;94797.97;8315286;28;20234;-72
2023/01/16 20:56:06;;;;;;;0.63;0.63;;;;;;;6.80;62.42;94798.81;8314539;28;20225;-72
2023/01/16 21:00:11;;;;;;;0.73;0.50;;;;;;;6.80;62.90;94785.94;8314845;28;20226;-72
2023/01/16 21:04:17;;;;;;;0.50;0.50;;;;;;;6.65;63.57;94789.75;8315001;28;20244;-73
2023/01/16 21:08:21;;;;;;;0.50;0.50;;;;;;;6.61;63.43;94796.88;8314230;28;20229;-72
2023/01/16 21:25:28;;;;;;;0.63;0.33;;;;;;;6.77;62.82;94809.31;8314126;28;20413;-72
2023/01/16 21:29:34;;;;;;;1.17;0.40;;;;;;;6.61;62.95;94825.16;8313822;28;20226;-72
2023/01/16 21:33:37;;;;;;;0.30;0.30;;;;;;;6.81;62.42;94830.47;8314516;28;20226;-72
2023/01/16 21:37:42;;;;;;;0.23;0.20;;;;;;;6.92;62.01;94845.88;8313713;28;20233;-72
2023/01/16 21:50:29;;;;;;;0.20;0.20;;;;;;;6.98;60.97;94829.13;8313424;28;20225;-73
2023/01/16 21:54:33;;;;;;;0.30;0.20;;;;;;;6.37;62.80;94856.16;8313262;28;20226;-73
2023/01/16 21:58:36;;;;;;;0.30;0.20;;;;;;;6.58;62.35;94871.66;8313214;28;20222;-73
2023/01/16 22:02:38;;;;;;;0.17;0.17;;;;;;;6.51;62.57;94865.41;8313201;28;20247;-73
2023/01/16 22:06:41;;;;;;;0.30;0.30;;;;;;;6.91;61.54;94864.00;8312282;28;20419;-73
2023/01/16 22:19:30;;;;;;;0.43;0.37;;;;;;;6.92;61.45;94881.91;8313358;28;20545;-73
2023/01/16 22:23:34;;;;;;;0.60;0.40;;;;;;;6.96;61.11;94887.63;8312779;28;20230;-73
2023/01/16 22:27:38;;;;;;;0.20;0.20;;;;;;;6.84;61.60;94885.06;8312827;28;20560;-73
2023/01/16 22:31:41;;;;;;;0.30;0.30;;;;;;;6.83;61.15;94877.47;8312656;28;20237;-73